createdAt,value
2018-12-31T00:00:01.403Z,6.8
2018-12-31T00:05:01.407Z,7.0
2018-12-31T00:10:01.552Z,7.6
2018-12-31T00:15:01.386Z,7.4
2018-12-31T00:20:01.452Z,7.6
2018-12-31T00:25:01.428Z,8.2
2018-12-31T00:30:01.395Z,8.6
2018-12-31T00:35:11.539Z,8.2
2018-12-31T00:40:02.980Z,8.2
2018-12-31T00:45:06.466Z,8.1
2018-12-31T00:50:07.449Z,7.5
2018-12-31T00:55:06.471Z,7.0
2018-12-31T01:00:06.420Z,6.8
2018-12-31T01:05:01.561Z,6.4
2018-12-31T01:10:01.451Z,6.0
2018-12-31T01:15:01.513Z,5.8
2018-12-31T01:20:06.412Z,6.0
2018-12-31T01:25:01.456Z,6.6
2018-12-31T01:30:01.392Z,7.0
2018-12-31T01:35:01.592Z,7.2
2018-12-31T01:40:01.391Z,7.2
2018-12-31T01:45:02.372Z,6.8
2018-12-31T01:50:02.350Z,6.6
2018-12-31T01:55:01.457Z,7.0
2018-12-31T02:00:06.538Z,6.6
2018-12-31T02:05:01.529Z,6.7
2018-12-31T02:10:01.400Z,6.9
2018-12-31T02:15:01.413Z,6.5
2018-12-31T02:21:01.441Z,6.1
2018-12-31T02:26:01.413Z,6.6
2018-12-31T02:31:01.512Z,6.7
2018-12-31T02:36:06.393Z,7.0
2018-12-31T02:41:01.512Z,6.8
2018-12-31T02:46:02.425Z,6.7
2018-12-31T02:51:01.460Z,6.6
2018-12-31T02:56:01.390Z,6.0
2018-12-31T03:01:11.486Z,5.8
2018-12-31T03:06:01.418Z,6.0
2018-12-31T03:11:01.489Z,5.4
2018-12-31T03:16:01.481Z,4.9
2018-12-31T03:21:01.504Z,4.9
2018-12-31T03:26:01.760Z,4.5
2018-12-31T03:31:01.667Z,4.0
2018-12-31T03:36:01.457Z,4.0
2018-12-31T03:41:01.494Z,3.8
2018-12-31T03:46:01.442Z,3.8
2018-12-31T03:51:01.491Z,3.8
2018-12-31T03:56:01.418Z,4.1
2018-12-31T04:01:01.551Z,3.6
2018-12-31T04:06:01.427Z,3.7
2018-12-31T04:11:01.552Z,3.4
2018-12-31T04:16:01.426Z,3.4
2018-12-31T04:21:01.492Z,3.2
2018-12-31T04:26:01.423Z,3.9
2018-12-31T04:36:01.518Z,4.2
2018-12-31T04:41:06.463Z,3.8
2018-12-31T04:46:01.409Z,3.6
2018-12-31T04:51:01.525Z,3.4
2018-12-31T05:06:01.516Z,4.0
2018-12-31T05:11:01.542Z,4.2
2018-12-31T05:16:01.383Z,4.4
2018-12-31T05:21:01.520Z,4.8
2018-12-31T05:26:01.394Z,5.3
2018-12-31T05:31:01.455Z,5.1
2018-12-31T05:36:06.396Z,5.4
2018-12-31T05:41:01.493Z,5.2
2018-12-31T05:46:01.423Z,5.1
2018-12-31T05:51:06.467Z,4.9
2018-12-31T05:56:11.516Z,4.9
2018-12-31T06:01:01.483Z,4.8
2018-12-31T06:06:01.388Z,5.2
2018-12-31T06:16:01.518Z,5.6
2018-12-31T06:26:01.515Z,6.0
2018-12-31T06:31:01.455Z,5.9
2018-12-31T06:36:01.406Z,6.5
2018-12-31T06:46:01.531Z,6.8
2018-12-31T06:51:01.456Z,6.3
2018-12-31T07:01:01.495Z,5.6
2018-12-31T07:06:01.434Z,5.4
2018-12-31T07:11:01.495Z,5.5
2018-12-31T07:16:01.422Z,6.0
2018-12-31T07:21:06.486Z,6.6
2018-12-31T07:26:01.442Z,7.3
2018-12-31T07:31:11.529Z,7.5
2018-12-31T07:36:06.408Z,7.1
2018-12-31T07:41:01.410Z,7.0
2018-12-31T07:46:01.395Z,6.4
2018-12-31T07:51:01.455Z,5.9
2018-12-31T07:56:01.589Z,5.9
2018-12-31T08:01:01.455Z,6.1
2018-12-31T08:06:11.407Z,5.8
2018-12-31T08:11:01.422Z,5.8
2018-12-31T08:16:01.427Z,6.2
2018-12-31T08:21:01.505Z,6.2
2018-12-31T08:26:01.426Z,6.4
2018-12-31T08:31:01.556Z,6.7
2018-12-31T08:36:01.397Z,6.8
2018-12-31T08:41:01.473Z,6.1
2018-12-31T08:46:01.400Z,5.1
2018-12-31T08:51:02.208Z,4.7
2018-12-31T08:56:01.398Z,4.0
2018-12-31T09:01:01.457Z,3.7
2018-12-31T09:06:01.397Z,4.4
2018-12-31T09:11:01.454Z,5.7
2018-12-31T09:16:01.390Z,8.0
2018-12-31T09:21:01.520Z,10.4
2018-12-31T09:26:01.436Z,11.8
2018-12-31T09:31:01.462Z,11.8
2018-12-31T09:36:07.432Z,11.5
2018-12-31T09:41:06.559Z,9.8
2018-12-31T09:46:02.434Z,8.4
2018-12-31T09:51:01.536Z,7.8
2018-12-31T09:56:01.493Z,7.0
2018-12-31T10:01:01.531Z,6.6
2018-12-31T10:06:01.410Z,5.4
2018-12-31T10:11:01.473Z,4.6
2018-12-31T10:17:01.397Z,3.8
2018-12-31T10:22:01.450Z,3.8
2018-12-31T10:27:11.409Z,3.2
2018-12-31T10:32:01.452Z,3.2
2018-12-31T10:37:01.388Z,3.2
2018-12-31T10:42:01.519Z,3.4
2018-12-31T10:47:01.392Z,3.4
2018-12-31T10:52:01.463Z,3.4
2018-12-31T10:57:01.395Z,3.2
2018-12-31T11:02:01.407Z,3.4
2018-12-31T11:07:01.399Z,3.2
2018-12-31T11:12:01.528Z,3.2
2018-12-31T11:17:01.408Z,3.2
2018-12-31T11:22:02.169Z,3.5
2018-12-31T11:27:01.389Z,3.3
2018-12-31T11:32:06.499Z,3.5
2018-12-31T11:37:01.414Z,3.5
2018-12-31T11:42:01.516Z,4.1
2018-12-31T11:47:03.196Z,5.2
2018-12-31T11:52:01.515Z,5.2
2018-12-31T11:57:01.391Z,4.8
2018-12-31T12:02:01.584Z,4.8
2018-12-31T12:07:01.393Z,4.8
2018-12-31T12:12:01.397Z,3.6
2018-12-31T12:17:01.431Z,3.6
2018-12-31T12:22:01.545Z,3.4
2018-12-31T12:27:01.396Z,3.7
2018-12-31T12:32:01.465Z,3.2
2018-12-31T12:37:01.643Z,3.8
2018-12-31T12:42:01.452Z,4.0
2018-12-31T12:47:01.387Z,4.6
2018-12-31T12:52:01.527Z,5.1
2018-12-31T12:57:01.397Z,5.6
2018-12-31T13:02:01.458Z,5.5
2018-12-31T13:07:01.391Z,4.8
2018-12-31T13:12:01.466Z,4.6
2018-12-31T13:17:01.574Z,3.9
2018-12-31T13:22:01.717Z,3.3
2018-12-31T13:27:01.392Z,2.8
2018-12-31T13:32:01.516Z,3.2
2018-12-31T13:37:01.468Z,2.9
2018-12-31T13:42:01.455Z,2.5
2018-12-31T13:47:01.392Z,2.7
2018-12-31T13:52:01.452Z,2.7
2018-12-31T13:57:02.098Z,2.5
2018-12-31T14:02:01.517Z,2.4
2018-12-31T14:07:01.398Z,2.8
2018-12-31T14:12:01.461Z,3.0
2018-12-31T14:17:01.433Z,3.4
2018-12-31T14:22:01.463Z,3.2
2018-12-31T14:32:06.559Z,5.8
2018-12-31T14:37:01.399Z,5.3
2018-12-31T14:42:01.596Z,4.7
2018-12-31T14:48:01.388Z,4.7
2018-12-31T14:53:01.454Z,5.1
2018-12-31T14:58:01.387Z,2.1
2018-12-31T15:03:01.523Z,2.3
2018-12-31T15:08:01.492Z,2.3
2018-12-31T15:13:01.516Z,2.7
2018-12-31T15:18:01.431Z,2.4
2018-12-31T15:23:01.491Z,2.7
2018-12-31T15:28:01.504Z,2.7
2018-12-31T15:33:01.559Z,3.3
2018-12-31T15:38:01.432Z,3.3
2018-12-31T15:43:01.552Z,3.5
2018-12-31T15:48:01.404Z,3.6
2018-12-31T15:53:01.521Z,3.9
2018-12-31T15:58:01.402Z,4.1
2018-12-31T16:03:01.482Z,4.0
2018-12-31T16:13:06.476Z,4.3
2018-12-31T16:18:01.403Z,4.6
2018-12-31T16:23:01.653Z,4.6
2018-12-31T16:33:01.582Z,4.6
2018-12-31T16:38:01.381Z,4.7
2018-12-31T16:43:02.239Z,4.6
2018-12-31T16:48:01.389Z,4.8
2018-12-31T16:53:01.522Z,5.0
2018-12-31T16:58:01.397Z,5.1
2018-12-31T17:03:03.267Z,5.3
2018-12-31T17:08:07.627Z,5.5
2018-12-31T17:13:01.566Z,5.5
2018-12-31T17:18:01.432Z,5.6
2018-12-31T17:23:01.566Z,5.2
2018-12-31T17:28:01.433Z,5.1
2018-12-31T17:33:01.893Z,4.8
2018-12-31T17:38:01.423Z,4.4
2018-12-31T17:43:01.872Z,4.2
2018-12-31T17:48:01.466Z,4.3
2018-12-31T17:53:06.535Z,3.9
2018-12-31T17:58:01.425Z,3.8
2018-12-31T18:03:06.471Z,3.4
2018-12-31T18:08:01.389Z,3.1
2018-12-31T18:13:01.522Z,2.7
2018-12-31T18:18:02.051Z,2.6
2018-12-31T18:23:01.470Z,2.6
2018-12-31T18:28:01.398Z,2.6
2018-12-31T18:33:01.444Z,2.6
2018-12-31T18:38:01.389Z,3.2
2018-12-31T18:43:01.512Z,3.6
2018-12-31T18:48:01.394Z,3.7
2018-12-31T18:53:01.451Z,4.3
2018-12-31T18:58:06.402Z,4.4
2018-12-31T19:03:07.493Z,3.8
2018-12-31T19:08:01.433Z,3.7
2018-12-31T19:13:06.463Z,3.6
2018-12-31T19:18:01.905Z,3.1
2018-12-31T19:23:01.457Z,3.2
2018-12-31T19:28:01.398Z,3.8
2018-12-31T19:33:01.460Z,5.8
2018-12-31T19:38:02.430Z,6.3
2018-12-31T19:44:02.255Z,8.0
2018-12-31T19:49:16.412Z,8.8
2018-12-31T19:54:01.520Z,9.1
2018-12-31T19:59:01.391Z,9.7
2018-12-31T20:04:01.451Z,10.2
2018-12-31T20:09:01.394Z,9.5
2018-12-31T20:14:01.458Z,9.4
2018-12-31T20:19:01.398Z,9.1
2018-12-31T20:24:01.521Z,7.0
2018-12-31T20:29:01.469Z,6.4
2018-12-31T20:34:01.488Z,5.8
2018-12-31T20:39:01.413Z,5.2
2018-12-31T20:44:01.564Z,5.2
2018-12-31T20:49:01.426Z,4.8
2018-12-31T20:54:01.556Z,4.4
2018-12-31T20:59:01.429Z,4.2
2018-12-31T21:04:01.426Z,4.4
2018-12-31T21:09:01.426Z,4.2
2018-12-31T21:14:01.467Z,4.4
2018-12-31T21:19:01.564Z,4.5
2018-12-31T21:24:01.457Z,4.7
2018-12-31T21:29:01.403Z,4.9
2018-12-31T21:34:08.016Z,4.9
2018-12-31T21:39:01.398Z,5.1
2018-12-31T21:44:01.459Z,5.3
2018-12-31T21:49:01.395Z,5.4
2018-12-31T21:54:01.457Z,6.1
2018-12-31T21:59:07.117Z,6.9
2018-12-31T22:04:01.392Z,7.0
2018-12-31T22:09:01.392Z,7.4
2018-12-31T22:14:01.514Z,7.3
2018-12-31T22:19:01.383Z,6.6
2018-12-31T22:24:01.448Z,5.8
2018-12-31T22:29:01.490Z,5.5
2018-12-31T22:34:01.564Z,4.9
2018-12-31T22:39:01.432Z,4.7
2018-12-31T22:44:06.464Z,4.0
2018-12-31T22:49:01.440Z,4.0
2018-12-31T22:54:01.499Z,3.8
2018-12-31T22:59:02.207Z,3.2
2018-12-31T23:04:01.573Z,5.2
2018-12-31T23:09:02.485Z,11.3
2018-12-31T23:14:01.584Z,18.8
2018-12-31T23:19:01.387Z,24.9
2018-12-31T23:24:01.452Z,32.8
2018-12-31T23:29:01.388Z,34.1
2018-12-31T23:34:01.562Z,30.6
2018-12-31T23:39:05.840Z,26.0
2018-12-31T23:44:01.452Z,22.7
2018-12-31T23:49:01.390Z,16.9
2018-12-31T23:54:01.506Z,17.7
2018-12-31T23:59:01.398Z,17.7
